• Join FlightAware (Why Join?)
  • Login
  • US Flag 
05:19AM EDT


 

Airport Tracker/Info


-or-


 

Live Flight TrackerFlight Track Log ✈ SWA471 ✈ 23-Apr-2013 ✈ KBWI - KMCI

Flight Track Log - Related Links

Times and Time Zones

All times are in EDT time to prevent confusion due to time zone crossing. See the SWA471 flight status page for this flight to view local times or setup timezone preferences in your user account.

Time Position Orientation Groundspeed Altitude Reporting Facility
EDT Latitude Longitude Course Direction KTS MPH feet Rate Location/Type
06:03PM 39.1333 -76.6667 211° Southwest 191 220 1,500  Level Potomac TRACON
06:04PM 39.1500 -76.7167 293° West 237 273 4,300 3,000 Climbing Potomac TRACON
06:05PM 39.1667 -76.7833 288° West 231 266 7,300 1,800 Climbing Potomac TRACON
06:06PM 39.1833 -76.8833 282° West 267 307 8,000 960 Climbing Potomac TRACON
06:07PM 39.2000 -76.9833 282° West 260 299 9,400 1,860 Climbing Potomac TRACON
06:08PM 39.2000 -77.0667 270° West 284 327 11,800 2,400 Climbing Potomac TRACON
06:09PM 39.0501 -77.2703 211° Southwest  Level FlightAware Approximate
06:09PM 39.1833 -77.1833 260° West 327 376 14,000  Level Potomac TRACON
06:10PM 39.0833 -77.2667 213° Southwest 364 419 16,300 2,040 Climbing Potomac TRACON
06:11PM 39.0000 -77.3333 212° Southwest 392 451 18,300 1,860 Climbing Potomac TRACON
06:14PM 38.9456 -77.6708 258° West 397 457 22,900 1,920 Climbing Washington Center
06:15PM 38.9222 -77.8117 258° West 403 464 25,000 1,800 Climbing Washington Center
06:16PM 38.8989 -77.9417 257° West 412 474 26,500 1,800 Climbing Washington Center
06:17PM 38.8750 -78.0822 258° West 412 474 28,600 2,100 Climbing Washington Center
06:18PM 38.8536 -78.2172 259° West 402 463 30,800 1,740 Climbing Washington Center
06:19PM 38.8528 -78.3478 270° West 388 447 32,100 1,200 Climbing Washington Center
06:20PM 38.8517 -78.4811 269° West 378 435 33,300 900 Climbing Washington Center
06:21PM 38.8506 -78.6092 269° West 373 429 34,000 300 Climbing Washington Center
06:22PM 38.8492 -78.7397 269° West 373 429 34,000  Level Washington Center
06:23PM 38.8481 -78.8675 269° West 368 423 34,000  Level Washington Center
06:24PM 38.8464 -79.0008 269° West 368 423 34,000  Level Washington Center
06:25PM 38.8428 -79.1286 268° West 368 423 34,000  Level Washington Center
06:26PM 38.8411 -79.2536 269° West 363 418 34,000  Level Washington Center
06:27PM 38.8392 -79.3817 269° West 363 418 34,000  Level Washington Center
06:28PM 38.8372 -79.5094 269° West 363 418 34,000  Level Washington Center
06:29PM 38.8347 -79.6453 269° West 370 426 34,000  Level Washington Center
06:30PM 38.8317 -79.7917 269° West 379 436 34,000  Level Washington Center
06:31PM 38.8269 -79.9219 267° West 374 430 34,000  Level Washington Center
06:32PM 38.8242 -80.0578 269° West 374 430 34,000  Level Washington Center
06:33PM 38.8169 -80.2111 267° West 370 426 34,000  Level Indianapolis Center
06:34PM 38.8133 -80.3458 268° West 377 434 34,000  Level Indianapolis Center
06:35PM 38.8103 -80.4792 268° West 375 432 34,000  Level Indianapolis Center
06:36PM 38.8058 -80.6131 268° West 375 432 34,000  Level Indianapolis Center
06:37PM 38.8022 -80.7736 268° West 376 433 34,000  Level Indianapolis Center
06:38PM 38.7964 -80.9056 267° West 370 426 34,000  Level Indianapolis Center
06:39PM 38.7922 -81.0381 268° West 372 428 34,000  Level Indianapolis Center
06:40PM 38.7878 -81.1700 268° West 371 427 34,000  Level Indianapolis Center
06:41PM 38.7836 -81.3022 268° West 372 428 34,000  Level Indianapolis Center
06:42PM 38.7775 -81.4567 267° West 374 430 34,000  Level Indianapolis Center
06:44PM 38.7722 -81.5894 267° West 373 429 34,000  Level Indianapolis Center
06:45PM 38.7678 -81.7192 268° West 375 432 34,000  Level Indianapolis Center
06:46PM 38.7619 -81.8508 267° West 374 430 34,000  Level Indianapolis Center
06:47PM 38.7564 -81.9833 267° West 372 428 34,000  Level Indianapolis Center
06:48PM 38.7500 -82.1425 267° West 376 433 34,000  Level Indianapolis Center
06:49PM 38.7456 -82.2764 268° West 377 434 34,000  Level Indianapolis Center
06:50PM 38.7400 -82.4103 267° West 377 434 34,000  Level Indianapolis Center
06:51PM 38.7342 -82.5447 267° West 378 435 34,000  Level Indianapolis Center
06:52PM 38.7289 -82.6786 267° West 377 434 34,000  Level Indianapolis Center
06:53PM 38.7242 -82.8125 267° West 377 434 34,000  Level Indianapolis Center
06:54PM 38.7164 -82.9728 266° West 377 434 34,000  Level Indianapolis Center
06:55PM 38.7103 -83.1094 267° West 383 441 34,000  Level Indianapolis Center
06:56PM 38.7042 -83.2314 266° West 378 435 34,000  Level Indianapolis Center
06:57PM 38.6978 -83.3686 267° West 382 440 34,000  Level Indianapolis Center
06:58PM 38.6900 -83.5283 266° West 382 440 34,000  Level Indianapolis Center
06:59PM 38.6836 -83.6661 267° West 382 440 34,000  Level Indianapolis Center
07:00PM 38.6767 -83.8042 266° West 383 441 34,000  Level Indianapolis Center
07:01PM 38.6797 -83.9419 272° West 384 442 34,000  Level Indianapolis Center
07:02PM 38.6886 -84.0789 275° West 385 443 34,000  Level Indianapolis Center
07:03PM 38.6953 -84.2167 274° West 383 441 34,000 180 Level Indianapolis Center
07:04PM 38.7025 -84.3528 274° West 381 438 34,400 720 Climbing Indianapolis Center
07:05PM 38.7089 -84.4889 273° West 378 435 35,500 720 Climbing Indianapolis Center
07:06PM 38.7158 -84.6311 274° West 371 427 36,000 240 Climbing Indianapolis Center
07:07PM 38.7228 -84.7644 274° West 373 429 36,000  Level Indianapolis Center
07:08PM 38.7292 -84.8989 274° West 375 432 36,000  Level Indianapolis Center
07:09PM 38.7369 -85.0547 274° West 375 432 36,000  Level Indianapolis Center
07:10PM 38.7425 -85.1889 273° West 375 432 36,000  Level Indianapolis Center
07:11PM 38.7489 -85.3219 274° West 373 429 36,000  Level Indianapolis Center
07:12PM 38.7536 -85.4544 273° West 372 428 36,000  Level Indianapolis Center
07:13PM 38.7600 -85.5886 274° West 373 429 36,000  Level Indianapolis Center
07:14PM 38.7658 -85.7239 273° West 377 434 36,000  Level Indianapolis Center
07:16PM 38.7700 -85.8578 272° West 376 433 36,000  Level Indianapolis Center
07:17PM 38.7769 -86.0092 273° West 377 434 36,000  Level Indianapolis Center
07:18PM 38.7817 -86.1436 273° West 378 435 36,000  Level Indianapolis Center
07:19PM 38.7867 -86.2772 273° West 376 433 36,000  Level Indianapolis Center
07:20PM 38.7914 -86.4103 273° West 376 433 36,000  Level Indianapolis Center
07:21PM 38.7953 -86.5439 272° West 376 433 36,000  Level Indianapolis Center
07:22PM 38.8000 -86.6786 273° West 379 436 36,000  Level Indianapolis Center
07:23PM 38.8056 -86.8392 273° West 377 434 36,000  Level Indianapolis Center
07:24PM 38.8097 -86.9717 272° West 375 432 36,000  Level Indianapolis Center
07:25PM 38.8136 -87.1047 272° West 374 430 36,000  Level Indianapolis Center
07:26PM 38.8167 -87.2372 272° West 373 429 36,000  Level Indianapolis Center
07:27PM 38.8203 -87.3700 272° West 374 430 36,000  Level Indianapolis Center
07:28PM 38.8239 -87.5036 272° West 374 430 36,000  Level Indianapolis Center
07:29PM 38.8269 -87.6353 272° West 372 428 36,000  Level Indianapolis Center
07:30PM 38.8306 -87.7953 272° West 373 429 36,000  Level Indianapolis Center
07:31PM 38.8336 -87.9264 272° West 371 427 36,000  Level Indianapolis Center
07:31PM 38.8350 -87.9803 272° West 370 426 36,000  Level Kansas City Center
07:33PM 38.8369 -88.1128 271° West 371 427 36,000  Level Kansas City Center
07:34PM 38.8419 -88.2436 273° West 368 423 36,000  Level Kansas City Center
07:35PM 38.8661 -88.3711 284° West 366 421 36,000  Level Kansas City Center
07:36PM 38.9017 -88.5194 287° West 362 417 36,000  Level Kansas City Center
07:37PM 38.9536 -88.6322 301° West 361 415 36,000  Level Kansas City Center
07:38PM 38.9986 -88.7272 301° West 365 420 36,000  Level Kansas City Center
07:39PM 39.0603 -88.8606 301° West 363 418 36,000  Level Kansas City Center
07:40PM 39.1147 -88.9792 301° West 363 418 36,000  Level Kansas City Center
07:41PM 39.1519 -89.0972 292° West 359 413 36,000  Level Kansas City Center
07:42PM 39.1781 -89.2114 286° West 359 413 36,000  Level Kansas City Center
07:43PM 39.2056 -89.3328 286° West 357 411 36,000  Level Kansas City Center
07:44PM 39.2294 -89.4658 283° West 354 407 36,000  Level Kansas City Center
07:45PM 39.2494 -89.6069 280° West 358 412 36,000  Level Kansas City Center
07:46PM 39.2683 -89.7306 281° West 356 410 36,000  Level Kansas City Center
07:47PM 39.2881 -89.8561 282° West 358 412 36,000  Level Kansas City Center
07:48PM 39.3069 -89.9825 281° West 360 414 36,000  Level Kansas City Center
07:49PM 39.3261 -90.1086 281° West 360 414 36,000  Level Kansas City Center
07:50PM 39.3442 -90.2344 281° West 360 414 36,000  Level Kansas City Center
07:51PM 39.3664 -90.3869 281° West 362 417 36,000  Level Kansas City Center
07:52PM 39.3850 -90.5128 281° West 361 415 36,000  Level Kansas City Center
07:53PM 39.4036 -90.6394 281° West 361 415 36,000  Level Kansas City Center
07:54PM 39.4211 -90.7656 280° West 359 413 36,000  Level Kansas City Center
07:55PM 39.4397 -90.8922 281° West 360 414 36,000  Level Kansas City Center
07:56PM 39.4556 -91.0194 279° West 360 414 36,000  Level Kansas City Center
07:57PM 39.4619 -91.1467 274° West 356 410 36,000  Level Kansas City Center
07:58PM 39.4736 -91.2947 276° West 350 403 36,000  Level Kansas City Center
07:59PM 39.4822 -91.4192 275° West 349 402 36,000  Level Kansas City Center
08:00PM 39.4908 -91.5419 275° West 346 398 36,000  Level Kansas City Center
08:01PM 39.4994 -91.6642 275° West 344 396 36,000  Level Kansas City Center
08:02PM 39.5097 -91.8006 276° West 342 394 36,000  Level Kansas City Center
08:03PM 39.5175 -91.9222 275° West 341 392 36,000  Level Kansas City Center
08:04PM 39.5261 -92.0439 275° West 341 392 36,000  Level Kansas City Center
08:05PM 39.5339 -92.1661 275° West 340 391 36,000  Level Kansas City Center
08:06PM 39.5414 -92.2883 275° West 341 392 36,000  Level Kansas City Center
08:07PM 39.5492 -92.4100 275° West 340 391 36,000  Level Kansas City Center
08:08PM 39.5567 -92.5306 275° West 340 391 36,000  Level Kansas City Center
08:10PM 39.5650 -92.6764 274° West 338 389 36,000  Level Kansas City Center
08:11PM 39.5722 -92.7975 274° West 338 389 36,000  Level Kansas City Center
08:12PM 39.5797 -92.9189 275° West 340 391 36,000  Level Kansas City Center
08:13PM 39.5867 -93.0397 274° West 338 389 36,000 -480 Level Kansas City Center
08:14PM 39.5922 -93.1603 273° West 338 389 35,100 -1,980 Descending Kansas City Center
08:15PM 39.6000 -93.2808 275° West 336 387 32,000 -2,820 Descending Kansas City Center
08:16PM 39.6053 -93.4011 273° West 336 387 29,300 -2,580 Descending Kansas City Center
08:17PM 39.6133 -93.5403 274° West 327 376 26,600 -2,340 Descending Kansas City Center
08:18PM 39.6200 -93.6550 274° West 322 371 24,500 -2,100 Descending Kansas City Center
08:19PM 39.6247 -93.7647 273° West 324 373 22,400 -2,280 Descending Kansas City Center
08:20PM 39.6258 -93.8881 271° West 309 356 20,000 -2,160 Descending Kansas City Center
08:21PM 39.5789 -93.9786 236° Southwest 311 358 18,000 -2,100 Descending Kansas City Center
08:22PM 39.5250 -94.0842 237° Southwest 313 360 15,700 -2,100 Descending Kansas City Center
08:23PM 39.4817 -94.1700 237° Southwest 299 344 13,700 -1,800 Descending Kansas City Center
08:24PM 39.4400 -94.2517 237° Southwest 287 330 12,000 -840 Descending Kansas City Center
08:25PM 39.3967 -94.3375 237° Southwest 256 295 12,000  Level Kansas City Center
08:26PM 39.3589 -94.4122 237° Southwest 259 298 12,000 -480 Level Kansas City Center
08:27PM 39.3158 -94.4953 236° Southwest 249 287 11,000 -1,200 Descending Kansas City Center
08:28PM 39.2836 -94.5594 237° Southwest 226 260 9,600 -1,440 Descending Kansas City Center
08:29PM 39.2417 -94.6136 225° Southwest 228 262 8,100 -1,740 Descending Kansas City Center
08:30PM 39.1786 -94.6619 211° Southwest 237 273 6,100 -1,500 Descending Kansas City Center
08:31PM 39.1578 -94.7214 246° West 215 247 5,000 -1,200 Descending Kansas City Center
08:32PM 39.1947 -94.7333 346° North 125 144 3,700 -1,380 Descending Kansas City Center
08:33PM 39.2258 -94.7267 North 119 137 2,300 -1,140 Descending Kansas City Center
08:34PM 39.2636 -94.7150 13° North 126 145 1,500 -600 Descending Kansas City Center
08:35PM 39.2956 -94.7064 12° North 126 145 1,100 -420 Descending Kansas City Center